sensor_id;sensor_type;location;lat;lon;timestamp;P1;durP1;ratioP1;P2;durP2;ratioP2
45420;SDS011;55462;47.042;8.292;2023-06-26T00:01:13;8.90;;;8.15;;
45420;SDS011;55462;47.042;8.292;2023-06-26T00:03:39;8.10;;;7.50;;
45420;SDS011;55462;47.042;8.292;2023-06-26T00:06:04;8.65;;;7.85;;
45420;SDS011;55462;47.042;8.292;2023-06-26T00:08:29;7.57;;;7.05;;
45420;SDS011;55462;47.042;8.292;2023-06-26T00:10:55;8.63;;;7.93;;
45420;SDS011;55462;47.042;8.292;2023-06-26T00:13:21;8.48;;;7.78;;
45420;SDS011;55462;47.042;8.292;2023-06-26T00:15:47;8.15;;;7.55;;
45420;SDS011;55462;47.042;8.292;2023-06-26T00:18:12;8.23;;;7.20;;
45420;SDS011;55462;47.042;8.292;2023-06-26T00:20:37;8.38;;;7.57;;
45420;SDS011;55462;47.042;8.292;2023-06-26T00:23:03;9.10;;;7.32;;
45420;SDS011;55462;47.042;8.292;2023-06-26T00:25:35;7.82;;;7.22;;
45420;SDS011;55462;47.042;8.292;2023-06-26T00:28:01;8.05;;;7.35;;
45420;SDS011;55462;47.042;8.292;2023-06-26T00:30:26;8.10;;;7.50;;
45420;SDS011;55462;47.042;8.292;2023-06-26T00:32:51;7.18;;;6.68;;
45420;SDS011;55462;47.042;8.292;2023-06-26T00:35:17;7.82;;;7.00;;
45420;SDS011;55462;47.042;8.292;2023-06-26T00:37:42;7.60;;;7.10;;
45420;SDS011;55462;47.042;8.292;2023-06-26T00:40:07;7.95;;;7.35;;
45420;SDS011;55462;47.042;8.292;2023-06-26T00:42:34;7.32;;;6.82;;
45420;SDS011;55462;47.042;8.292;2023-06-26T00:44:59;7.40;;;6.90;;
45420;SDS011;55462;47.042;8.292;2023-06-26T00:47:24;7.75;;;7.03;;
45420;SDS011;55462;47.042;8.292;2023-06-26T00:49:50;7.18;;;6.55;;
45420;SDS011;55462;47.042;8.292;2023-06-26T00:52:16;7.88;;;7.28;;
45420;SDS011;55462;47.042;8.292;2023-06-26T00:54:41;7.53;;;6.93;;
45420;SDS011;55462;47.042;8.292;2023-06-26T00:57:07;7.88;;;7.28;;
45420;SDS011;55462;47.042;8.292;2023-06-26T00:59:32;8.18;;;7.38;;
45420;SDS011;55462;47.042;8.292;2023-06-26T01:01:58;7.75;;;7.15;;
45420;SDS011;55462;47.042;8.292;2023-06-26T01:04:23;7.55;;;6.95;;
45420;SDS011;55462;47.042;8.292;2023-06-26T01:06:52;8.23;;;7.63;;
45420;SDS011;55462;47.042;8.292;2023-06-26T01:09:18;7.57;;;6.97;;
45420;SDS011;55462;47.042;8.292;2023-06-26T01:11:44;7.63;;;7.03;;
45420;SDS011;55462;47.042;8.292;2023-06-26T01:14:09;8.00;;;7.40;;
45420;SDS011;55462;47.042;8.292;2023-06-26T01:16:35;8.15;;;7.22;;
45420;SDS011;55462;47.042;8.292;2023-06-26T01:19:00;8.43;;;7.68;;
45420;SDS011;55462;47.042;8.292;2023-06-26T01:21:26;7.45;;;6.78;;
45420;SDS011;55462;47.042;8.292;2023-06-26T01:24:15;7.95;;;7.35;;
45420;SDS011;55462;47.042;8.292;2023-06-26T01:26:52;8.18;;;7.30;;
45420;SDS011;55462;47.042;8.292;2023-06-26T01:29:18;7.50;;;6.93;;
45420;SDS011;55462;47.042;8.292;2023-06-26T01:31:43;7.97;;;7.28;;
45420;SDS011;55462;47.042;8.292;2023-06-26T01:34:11;7.13;;;6.63;;
45420;SDS011;55462;47.042;8.292;2023-06-26T01:36:37;8.10;;;7.38;;
45420;SDS011;55462;47.042;8.292;2023-06-26T01:39:02;7.57;;;6.88;;
45420;SDS011;55462;47.042;8.292;2023-06-26T01:41:27;7.25;;;6.75;;
45420;SDS011;55462;47.042;8.292;2023-06-26T01:46:42;6.95;;;6.45;;
45420;SDS011;55462;47.042;8.292;2023-06-26T01:49:25;7.45;;;6.95;;
45420;SDS011;55462;47.042;8.292;2023-06-26T01:52:09;7.50;;;6.90;;
45420;SDS011;55462;47.042;8.292;2023-06-26T01:54:47;7.32;;;6.72;;
45420;SDS011;55462;47.042;8.292;2023-06-26T01:57:17;7.60;;;7.10;;
45420;SDS011;55462;47.042;8.292;2023-06-26T01:59:43;7.05;;;6.55;;
45420;SDS011;55462;47.042;8.292;2023-06-26T02:02:10;6.82;;;6.38;;
45420;SDS011;55462;47.042;8.292;2023-06-26T02:04:35;7.47;;;6.88;;
45420;SDS011;55462;47.042;8.292;2023-06-26T02:07:02;7.93;;;7.32;;
45420;SDS011;55462;47.042;8.292;2023-06-26T02:09:27;8.45;;;7.68;;
45420;SDS011;55462;47.042;8.292;2023-06-26T02:11:53;7.75;;;7.13;;
45420;SDS011;55462;47.042;8.292;2023-06-26T02:14:18;8.32;;;7.63;;
45420;SDS011;55462;47.042;8.292;2023-06-26T02:16:43;8.38;;;7.63;;
45420;SDS011;55462;47.042;8.292;2023-06-26T02:19:09;8.45;;;7.75;;
45420;SDS011;55462;47.042;8.292;2023-06-26T02:21:34;8.23;;;7.53;;
45420;SDS011;55462;47.042;8.292;2023-06-26T02:24:00;8.18;;;7.47;;
45420;SDS011;55462;47.042;8.292;2023-06-26T02:26:26;8.10;;;7.40;;
45420;SDS011;55462;47.042;8.292;2023-06-26T02:28:51;7.40;;;6.80;;
45420;SDS011;55462;47.042;8.292;2023-06-26T02:31:16;8.68;;;7.97;;
45420;SDS011;55462;47.042;8.292;2023-06-26T02:33:42;8.40;;;7.80;;
45420;SDS011;55462;47.042;8.292;2023-06-26T02:36:07;8.90;;;7.43;;
45420;SDS011;55462;47.042;8.292;2023-06-26T02:38:33;8.65;;;8.05;;
45420;SDS011;55462;47.042;8.292;2023-06-26T02:40:58;7.85;;;7.25;;
45420;SDS011;55462;47.042;8.292;2023-06-26T02:43:23;8.70;;;8.00;;
45420;SDS011;55462;47.042;8.292;2023-06-26T02:45:49;8.70;;;8.05;;
45420;SDS011;55462;47.042;8.292;2023-06-26T02:48:14;10.23;;;8.25;;
45420;SDS011;55462;47.042;8.292;2023-06-26T02:50:39;9.27;;;8.50;;
45420;SDS011;55462;47.042;8.292;2023-06-26T02:53:04;9.23;;;8.32;;
45420;SDS011;55462;47.042;8.292;2023-06-26T02:55:30;9.45;;;8.70;;
45420;SDS011;55462;47.042;8.292;2023-06-26T02:57:55;9.38;;;8.48;;
45420;SDS011;55462;47.042;8.292;2023-06-26T03:00:20;8.60;;;8.00;;
45420;SDS011;55462;47.042;8.292;2023-06-26T03:02:49;9.77;;;8.93;;
45420;SDS011;55462;47.042;8.292;2023-06-26T03:05:14;9.77;;;8.88;;
45420;SDS011;55462;47.042;8.292;2023-06-26T03:07:39;8.85;;;8.15;;
45420;SDS011;55462;47.042;8.292;2023-06-26T03:10:05;8.73;;;8.02;;
45420;SDS011;55462;47.042;8.292;2023-06-26T03:12:30;9.82;;;8.93;;
45420;SDS011;55462;47.042;8.292;2023-06-26T03:14:56;9.05;;;8.35;;
45420;SDS011;55462;47.042;8.292;2023-06-26T03:17:21;8.45;;;7.57;;
45420;SDS011;55462;47.042;8.292;2023-06-26T03:19:46;9.57;;;8.60;;
45420;SDS011;55462;47.042;8.292;2023-06-26T03:22:12;9.27;;;8.48;;
45420;SDS011;55462;47.042;8.292;2023-06-26T03:24:37;9.05;;;8.35;;
45420;SDS011;55462;47.042;8.292;2023-06-26T03:27:02;9.07;;;8.38;;
45420;SDS011;55462;47.042;8.292;2023-06-26T03:29:28;8.63;;;7.93;;
45420;SDS011;55462;47.042;8.292;2023-06-26T03:31:54;8.98;;;8.05;;
45420;SDS011;55462;47.042;8.292;2023-06-26T03:34:20;8.95;;;8.25;;
45420;SDS011;55462;47.042;8.292;2023-06-26T03:36:46;8.82;;;7.93;;
45420;SDS011;55462;47.042;8.292;2023-06-26T03:39:11;8.35;;;7.75;;
45420;SDS011;55462;47.042;8.292;2023-06-26T03:41:37;8.65;;;7.95;;
45420;SDS011;55462;47.042;8.292;2023-06-26T03:44:02;8.30;;;7.70;;
45420;SDS011;55462;47.042;8.292;2023-06-26T03:46:28;8.25;;;7.72;;
45420;SDS011;55462;47.042;8.292;2023-06-26T03:48:53;8.25;;;7.45;;
45420;SDS011;55462;47.042;8.292;2023-06-26T03:51:19;8.43;;;7.82;;
45420;SDS011;55462;47.042;8.292;2023-06-26T03:53:44;8.40;;;7.63;;
45420;SDS011;55462;47.042;8.292;2023-06-26T03:56:10;8.90;;;8.20;;
45420;SDS011;55462;47.042;8.292;2023-06-26T03:58:35;8.50;;;7.78;;
45420;SDS011;55462;47.042;8.292;2023-06-26T04:01:00;8.43;;;7.57;;
45420;SDS011;55462;47.042;8.292;2023-06-26T04:03:26;9.00;;;7.88;;
45420;SDS011;55462;47.042;8.292;2023-06-26T04:05:51;7.93;;;7.32;;
45420;SDS011;55462;47.042;8.292;2023-06-26T04:08:16;8.50;;;7.75;;
45420;SDS011;55462;47.042;8.292;2023-06-26T04:10:42;8.80;;;8.10;;
45420;SDS011;55462;47.042;8.292;2023-06-26T04:13:10;8.13;;;7.43;;
45420;SDS011;55462;47.042;8.292;2023-06-26T04:15:35;8.30;;;7.60;;
45420;SDS011;55462;47.042;8.292;2023-06-26T04:18:01;8.07;;;7.47;;
45420;SDS011;55462;47.042;8.292;2023-06-26T04:20:26;7.88;;;7.15;;
45420;SDS011;55462;47.042;8.292;2023-06-26T04:22:51;8.05;;;7.35;;
45420;SDS011;55462;47.042;8.292;2023-06-26T04:25:17;8.65;;;7.95;;
45420;SDS011;55462;47.042;8.292;2023-06-26T04:27:42;8.85;;;8.15;;
45420;SDS011;55462;47.042;8.292;2023-06-26T04:30:07;9.48;;;8.27;;
45420;SDS011;55462;47.042;8.292;2023-06-26T04:32:34;8.35;;;7.75;;
45420;SDS011;55462;47.042;8.292;2023-06-26T04:34:59;7.82;;;7.10;;
45420;SDS011;55462;47.042;8.292;2023-06-26T04:37:25;8.85;;;8.15;;
45420;SDS011;55462;47.042;8.292;2023-06-26T04:39:50;9.07;;;8.38;;
45420;SDS011;55462;47.042;8.292;2023-06-26T04:42:16;9.15;;;8.15;;
45420;SDS011;55462;47.042;8.292;2023-06-26T04:44:41;8.43;;;7.57;;
45420;SDS011;55462;47.042;8.292;2023-06-26T04:47:07;8.40;;;7.80;;
45420;SDS011;55462;47.042;8.292;2023-06-26T04:49:33;9.98;;;8.23;;
45420;SDS011;55462;47.042;8.292;2023-06-26T04:51:58;8.75;;;8.05;;
45420;SDS011;55462;47.042;8.292;2023-06-26T04:54:25;8.80;;;8.20;;
45420;SDS011;55462;47.042;8.292;2023-06-26T04:56:50;8.38;;;7.57;;
45420;SDS011;55462;47.042;8.292;2023-06-26T04:59:16;8.57;;;7.78;;
45420;SDS011;55462;47.042;8.292;2023-06-26T05:01:41;8.85;;;8.15;;
45420;SDS011;55462;47.042;8.292;2023-06-26T05:04:06;8.70;;;8.00;;
45420;SDS011;55462;47.042;8.292;2023-06-26T05:06:32;8.15;;;7.35;;
45420;SDS011;55462;47.042;8.292;2023-06-26T05:08:57;8.10;;;7.50;;
45420;SDS011;55462;47.042;8.292;2023-06-26T05:11:22;8.35;;;7.75;;
45420;SDS011;55462;47.042;8.292;2023-06-26T05:13:50;8.73;;;8.02;;
45420;SDS011;55462;47.042;8.292;2023-06-26T05:16:15;7.88;;;7.28;;
45420;SDS011;55462;47.042;8.292;2023-06-26T05:18:40;8.65;;;7.95;;
45420;SDS011;55462;47.042;8.292;2023-06-26T05:21:06;9.95;;;7.90;;
45420;SDS011;55462;47.042;8.292;2023-06-26T05:23:32;8.90;;;7.05;;
45420;SDS011;55462;47.042;8.292;2023-06-26T05:25:58;8.70;;;7.93;;
45420;SDS011;55462;47.042;8.292;2023-06-26T05:28:24;9.52;;;8.68;;
45420;SDS011;55462;47.042;8.292;2023-06-26T05:30:50;8.15;;;7.45;;
45420;SDS011;55462;47.042;8.292;2023-06-26T05:33:16;8.82;;;8.02;;
45420;SDS011;55462;47.042;8.292;2023-06-26T05:35:43;8.73;;;8.02;;
45420;SDS011;55462;47.042;8.292;2023-06-26T05:38:10;7.82;;;7.05;;
45420;SDS011;55462;47.042;8.292;2023-06-26T05:40:36;7.43;;;6.70;;
45420;SDS011;55462;47.042;8.292;2023-06-26T05:43:17;8.05;;;7.40;;
45420;SDS011;55462;47.042;8.292;2023-06-26T05:45:47;8.18;;;7.57;;
45420;SDS011;55462;47.042;8.292;2023-06-26T05:48:13;7.43;;;6.72;;
45420;SDS011;55462;47.042;8.292;2023-06-26T05:50:39;7.90;;;7.15;;
45420;SDS011;55462;47.042;8.292;2023-06-26T05:53:07;8.50;;;7.80;;
45420;SDS011;55462;47.042;8.292;2023-06-26T05:55:32;7.50;;;6.85;;
45420;SDS011;55462;47.042;8.292;2023-06-26T05:57:58;8.55;;;7.75;;
45420;SDS011;55462;47.042;8.292;2023-06-26T06:00:24;9.93;;;7.43;;
45420;SDS011;55462;47.042;8.292;2023-06-26T06:02:51;8.00;;;7.40;;
45420;SDS011;55462;47.042;8.292;2023-06-26T06:05:19;8.10;;;7.47;;
45420;SDS011;55462;47.042;8.292;2023-06-26T06:07:45;8.95;;;8.20;;
45420;SDS011;55462;47.042;8.292;2023-06-26T06:10:10;7.78;;;7.18;;
45420;SDS011;55462;47.042;8.292;2023-06-26T06:12:35;7.30;;;6.80;;
45420;SDS011;55462;47.042;8.292;2023-06-26T06:15:01;8.15;;;7.38;;
45420;SDS011;55462;47.042;8.292;2023-06-26T06:17:26;7.57;;;6.93;;
45420;SDS011;55462;47.042;8.292;2023-06-26T06:19:51;7.97;;;7.28;;
45420;SDS011;55462;47.042;8.292;2023-06-26T06:22:17;8.45;;;7.82;;
45420;SDS011;55462;47.042;8.292;2023-06-26T06:24:42;7.90;;;7.20;;
45420;SDS011;55462;47.042;8.292;2023-06-26T06:27:08;10.90;;;7.70;;
45420;SDS011;55462;47.042;8.292;2023-06-26T06:29:34;9.18;;;8.23;;
45420;SDS011;55462;47.042;8.292;2023-06-26T06:31:59;8.00;;;7.22;;
45420;SDS011;55462;47.042;8.292;2023-06-26T06:34:24;7.85;;;7.25;;
45420;SDS011;55462;47.042;8.292;2023-06-26T06:36:50;7.78;;;7.20;;
45420;SDS011;55462;47.042;8.292;2023-06-26T06:39:15;8.85;;;8.10;;
45420;SDS011;55462;47.042;8.292;2023-06-26T06:41:40;8.27;;;7.57;;
45420;SDS011;55462;47.042;8.292;2023-06-26T06:44:06;7.78;;;7.20;;
45420;SDS011;55462;47.042;8.292;2023-06-26T06:46:31;8.38;;;7.68;;
45420;SDS011;55462;47.042;8.292;2023-06-26T06:48:56;8.90;;;8.20;;
45420;SDS011;55462;47.042;8.292;2023-06-26T06:51:22;8.10;;;7.30;;
45420;SDS011;55462;47.042;8.292;2023-06-26T06:53:47;10.73;;;7.80;;
45420;SDS011;55462;47.042;8.292;2023-06-26T06:56:13;7.82;;;7.22;;
45420;SDS011;55462;47.042;8.292;2023-06-26T06:58:38;8.30;;;7.57;;
45420;SDS011;55462;47.042;8.292;2023-06-26T07:01:07;7.88;;;7.28;;
45420;SDS011;55462;47.042;8.292;2023-06-26T07:03:32;8.63;;;7.47;;
45420;SDS011;55462;47.042;8.292;2023-06-26T07:05:58;7.20;;;6.70;;
45420;SDS011;55462;47.042;8.292;2023-06-26T07:08:23;10.20;;;7.90;;
45420;SDS011;55462;47.042;8.292;2023-06-26T07:10:48;7.40;;;6.68;;
45420;SDS011;55462;47.042;8.292;2023-06-26T07:13:14;7.55;;;6.53;;
45420;SDS011;55462;47.042;8.292;2023-06-26T07:15:39;8.13;;;7.43;;
45420;SDS011;55462;47.042;8.292;2023-06-26T07:18:04;8.10;;;7.40;;
45420;SDS011;55462;47.042;8.292;2023-06-26T07:20:30;8.43;;;7.63;;
45420;SDS011;55462;47.042;8.292;2023-06-26T07:22:55;8.13;;;7.43;;
45420;SDS011;55462;47.042;8.292;2023-06-26T07:25:20;8.73;;;7.85;;
45420;SDS011;55462;47.042;8.292;2023-06-26T07:27:46;8.05;;;7.45;;
45420;SDS011;55462;47.042;8.292;2023-06-26T07:30:11;8.07;;;7.38;;
45420;SDS011;55462;47.042;8.292;2023-06-26T07:32:37;8.02;;;7.28;;
45420;SDS011;55462;47.042;8.292;2023-06-26T07:35:02;7.85;;;7.15;;
45420;SDS011;55462;47.042;8.292;2023-06-26T07:37:28;7.70;;;7.20;;
45420;SDS011;55462;47.042;8.292;2023-06-26T07:39:53;8.30;;;7.53;;
45420;SDS011;55462;47.042;8.292;2023-06-26T07:42:19;8.05;;;7.45;;
45420;SDS011;55462;47.042;8.292;2023-06-26T07:44:44;9.20;;;7.63;;
45420;SDS011;55462;47.042;8.292;2023-06-26T07:47:09;8.52;;;7.70;;
45420;SDS011;55462;47.042;8.292;2023-06-26T07:49:35;7.85;;;6.97;;
45420;SDS011;55462;47.042;8.292;2023-06-26T07:52:00;8.70;;;7.82;;
45420;SDS011;55462;47.042;8.292;2023-06-26T07:54:26;8.82;;;7.25;;
45420;SDS011;55462;47.042;8.292;2023-06-26T07:57:01;8.27;;;7.60;;
45420;SDS011;55462;47.042;8.292;2023-06-26T07:59:28;8.45;;;7.85;;
45420;SDS011;55462;47.042;8.292;2023-06-26T08:01:55;9.63;;;7.47;;
45420;SDS011;55462;47.042;8.292;2023-06-26T08:04:22;9.70;;;7.90;;
45420;SDS011;55462;47.042;8.292;2023-06-26T08:06:48;9.07;;;8.27;;
45420;SDS011;55462;47.042;8.292;2023-06-26T08:09:14;8.50;;;7.80;;
45420;SDS011;55462;47.042;8.292;2023-06-26T08:11:40;9.02;;;8.13;;
45420;SDS011;55462;47.042;8.292;2023-06-26T08:14:05;8.35;;;7.60;;
45420;SDS011;55462;47.042;8.292;2023-06-26T08:16:30;7.85;;;7.25;;
45420;SDS011;55462;47.042;8.292;2023-06-26T08:18:56;8.85;;;7.75;;
45420;SDS011;55462;47.042;8.292;2023-06-26T08:21:21;8.35;;;7.57;;
45420;SDS011;55462;47.042;8.292;2023-06-26T08:23:46;7.72;;;7.13;;
45420;SDS011;55462;47.042;8.292;2023-06-26T08:26:13;7.93;;;7.13;;
45420;SDS011;55462;47.042;8.292;2023-06-26T08:28:38;8.88;;;8.07;;
45420;SDS011;55462;47.042;8.292;2023-06-26T08:31:04;8.10;;;7.40;;
45420;SDS011;55462;47.042;8.292;2023-06-26T08:33:29;7.72;;;7.13;;
45420;SDS011;55462;47.042;8.292;2023-06-26T08:35:54;7.72;;;7.20;;
45420;SDS011;55462;47.042;8.292;2023-06-26T08:38:19;8.05;;;7.20;;
45420;SDS011;55462;47.042;8.292;2023-06-26T08:40:46;7.82;;;7.32;;
45420;SDS011;55462;47.042;8.292;2023-06-26T08:43:12;7.78;;;7.25;;
45420;SDS011;55462;47.042;8.292;2023-06-26T08:45:37;6.97;;;6.47;;
45420;SDS011;55462;47.042;8.292;2023-06-26T08:48:03;8.10;;;7.50;;
45420;SDS011;55462;47.042;8.292;2023-06-26T08:50:33;7.28;;;6.68;;
45420;SDS011;55462;47.042;8.292;2023-06-26T08:55:46;8.27;;;6.97;;
45420;SDS011;55462;47.042;8.292;2023-06-26T08:58:14;8.27;;;7.57;;
45420;SDS011;55462;47.042;8.292;2023-06-26T09:00:39;7.88;;;7.28;;
45420;SDS011;55462;47.042;8.292;2023-06-26T09:03:04;10.73;;;7.85;;
45420;SDS011;55462;47.042;8.292;2023-06-26T09:05:30;9.77;;;8.10;;
45420;SDS011;55462;47.042;8.292;2023-06-26T09:07:58;8.52;;;7.80;;
45420;SDS011;55462;47.042;8.292;2023-06-26T09:10:24;8.38;;;7.50;;
45420;SDS011;55462;47.042;8.292;2023-06-26T09:12:49;7.88;;;7.28;;
45420;SDS011;55462;47.042;8.292;2023-06-26T09:15:15;7.78;;;7.18;;
45420;SDS011;55462;47.042;8.292;2023-06-26T09:17:41;7.90;;;7.20;;
45420;SDS011;55462;47.042;8.292;2023-06-26T09:20:07;10.18;;;8.25;;
45420;SDS011;55462;47.042;8.292;2023-06-26T09:22:33;8.10;;;7.50;;
45420;SDS011;55462;47.042;8.292;2023-06-26T09:25:02;7.78;;;7.07;;
45420;SDS011;55462;47.042;8.292;2023-06-26T09:27:27;8.15;;;7.15;;
45420;SDS011;55462;47.042;8.292;2023-06-26T09:29:52;7.43;;;6.93;;
45420;SDS011;55462;47.042;8.292;2023-06-26T09:32:18;7.97;;;7.28;;
45420;SDS011;55462;47.042;8.292;2023-06-26T09:34:43;7.38;;;6.60;;
45420;SDS011;55462;47.042;8.292;2023-06-26T09:37:11;7.63;;;7.13;;
45420;SDS011;55462;47.042;8.292;2023-06-26T09:39:37;8.05;;;7.35;;
45420;SDS011;55462;47.042;8.292;2023-06-26T09:42:02;7.00;;;6.30;;
45420;SDS011;55462;47.042;8.292;2023-06-26T09:44:28;6.90;;;6.40;;
45420;SDS011;55462;47.042;8.292;2023-06-26T09:46:56;6.93;;;6.43;;
45420;SDS011;55462;47.042;8.292;2023-06-26T09:49:21;7.30;;;6.10;;
45420;SDS011;55462;47.042;8.292;2023-06-26T09:51:48;7.25;;;6.72;;
45420;SDS011;55462;47.042;8.292;2023-06-26T09:54:16;6.97;;;6.38;;
45420;SDS011;55462;47.042;8.292;2023-06-26T09:56:42;7.43;;;6.72;;
45420;SDS011;55462;47.042;8.292;2023-06-26T09:59:08;6.78;;;6.18;;
45420;SDS011;55462;47.042;8.292;2023-06-26T10:01:39;7.22;;;6.70;;
45420;SDS011;55462;47.042;8.292;2023-06-26T10:04:06;6.65;;;6.05;;
45420;SDS011;55462;47.042;8.292;2023-06-26T10:06:46;7.18;;;6.68;;
45420;SDS011;55462;47.042;8.292;2023-06-26T10:09:16;10.82;;;5.85;;
45420;SDS011;55462;47.042;8.292;2023-06-26T10:11:59;6.53;;;6.03;;
45420;SDS011;55462;47.042;8.292;2023-06-26T10:14:26;7.13;;;6.28;;
45420;SDS011;55462;47.042;8.292;2023-06-26T10:16:52;7.63;;;6.38;;
45420;SDS011;55462;47.042;8.292;2023-06-26T10:19:19;6.80;;;6.10;;
45420;SDS011;55462;47.042;8.292;2023-06-26T10:21:51;7.30;;;6.18;;
45420;SDS011;55462;47.042;8.292;2023-06-26T10:24:16;6.50;;;6.00;;
45420;SDS011;55462;47.042;8.292;2023-06-26T10:26:44;6.93;;;6.43;;
45420;SDS011;55462;47.042;8.292;2023-06-26T10:29:10;7.32;;;6.72;;
45420;SDS011;55462;47.042;8.292;2023-06-26T10:31:36;7.20;;;6.60;;
45420;SDS011;55462;47.042;8.292;2023-06-26T10:34:02;7.28;;;6.43;;
45420;SDS011;55462;47.042;8.292;2023-06-26T10:36:29;6.90;;;5.97;;
45420;SDS011;55462;47.042;8.292;2023-06-26T10:38:56;7.03;;;6.32;;
45420;SDS011;55462;47.042;8.292;2023-06-26T10:41:23;6.45;;;6.03;;
45420;SDS011;55462;47.042;8.292;2023-06-26T10:43:50;7.47;;;6.72;;
45420;SDS011;55462;47.042;8.292;2023-06-26T10:49:13;6.95;;;6.45;;
45420;SDS011;55462;47.042;8.292;2023-06-26T10:51:39;7.03;;;6.53;;
45420;SDS011;55462;47.042;8.292;2023-06-26T10:54:11;7.07;;;6.47;;
45420;SDS011;55462;47.042;8.292;2023-06-26T10:56:43;6.28;;;5.70;;
45420;SDS011;55462;47.042;8.292;2023-06-26T10:59:13;8.02;;;6.45;;
45420;SDS011;55462;47.042;8.292;2023-06-26T11:01:46;6.45;;;5.95;;
45420;SDS011;55462;47.042;8.292;2023-06-26T11:04:19;7.07;;;6.57;;
45420;SDS011;55462;47.042;8.292;2023-06-26T11:07:23;6.72;;;6.13;;
45420;SDS011;55462;47.042;8.292;2023-06-26T11:10:08;6.90;;;6.07;;
45420;SDS011;55462;47.042;8.292;2023-06-26T11:12:37;7.20;;;6.60;;
45420;SDS011;55462;47.042;8.292;2023-06-26T11:15:06;7.45;;;6.85;;
45420;SDS011;55462;47.042;8.292;2023-06-26T11:17:36;7.00;;;6.38;;
45420;SDS011;55462;47.042;8.292;2023-06-26T11:20:02;6.35;;;5.88;;
45420;SDS011;55462;47.042;8.292;2023-06-26T11:22:33;7.28;;;6.57;;
45420;SDS011;55462;47.042;8.292;2023-06-26T11:25:00;7.07;;;6.55;;
45420;SDS011;55462;47.042;8.292;2023-06-26T11:27:30;7.53;;;7.03;;
45420;SDS011;55462;47.042;8.292;2023-06-26T11:30:05;7.55;;;6.85;;
45420;SDS011;55462;47.042;8.292;2023-06-26T11:32:32;10.35;;;6.32;;
45420;SDS011;55462;47.042;8.292;2023-06-26T11:35:00;6.75;;;6.20;;
45420;SDS011;55462;47.042;8.292;2023-06-26T11:37:25;6.93;;;6.15;;
45420;SDS011;55462;47.042;8.292;2023-06-26T11:39:51;6.80;;;6.20;;
45420;SDS011;55462;47.042;8.292;2023-06-26T11:42:19;7.10;;;6.60;;
45420;SDS011;55462;47.042;8.292;2023-06-26T11:44:45;7.28;;;6.55;;
45420;SDS011;55462;47.042;8.292;2023-06-26T11:47:20;7.47;;;6.32;;
45420;SDS011;55462;47.042;8.292;2023-06-26T11:49:46;7.60;;;6.85;;
45420;SDS011;55462;47.042;8.292;2023-06-26T11:52:12;6.55;;;6.00;;
45420;SDS011;55462;47.042;8.292;2023-06-26T11:54:38;7.38;;;6.63;;
45420;SDS011;55462;47.042;8.292;2023-06-26T11:57:04;6.93;;;6.28;;
45420;SDS011;55462;47.042;8.292;2023-06-26T11:59:36;6.80;;;6.30;;
45420;SDS011;55462;47.042;8.292;2023-06-26T12:02:20;6.43;;;5.82;;
45420;SDS011;55462;47.042;8.292;2023-06-26T12:04:46;7.20;;;6.55;;
45420;SDS011;55462;47.042;8.292;2023-06-26T12:07:11;7.78;;;6.63;;
45420;SDS011;55462;47.042;8.292;2023-06-26T12:09:41;6.75;;;6.32;;
45420;SDS011;55462;47.042;8.292;2023-06-26T12:12:08;7.22;;;6.53;;
45420;SDS011;55462;47.042;8.292;2023-06-26T12:14:35;9.75;;;6.57;;
45420;SDS011;55462;47.042;8.292;2023-06-26T12:17:11;7.15;;;6.57;;
45420;SDS011;55462;47.042;8.292;2023-06-26T12:19:38;7.40;;;6.90;;
45420;SDS011;55462;47.042;8.292;2023-06-26T12:22:07;7.03;;;6.32;;
45420;SDS011;55462;47.042;8.292;2023-06-26T12:24:34;7.85;;;7.20;;
45420;SDS011;55462;47.042;8.292;2023-06-26T12:27:01;7.80;;;7.03;;
45420;SDS011;55462;47.042;8.292;2023-06-26T12:29:33;7.75;;;6.97;;
45420;SDS011;55462;47.042;8.292;2023-06-26T12:32:08;7.15;;;6.65;;
45420;SDS011;55462;47.042;8.292;2023-06-26T12:34:34;8.05;;;7.25;;
45420;SDS011;55462;47.042;8.292;2023-06-26T12:37:01;7.47;;;6.88;;
45420;SDS011;55462;47.042;8.292;2023-06-26T12:42:53;8.10;;;7.40;;
45420;SDS011;55462;47.042;8.292;2023-06-26T12:45:29;8.48;;;7.85;;
45420;SDS011;55462;47.042;8.292;2023-06-26T12:48:12;9.27;;;8.25;;
45420;SDS011;55462;47.042;8.292;2023-06-26T12:53:40;10.15;;;7.90;;
45420;SDS011;55462;47.042;8.292;2023-06-26T12:56:06;11.25;;;7.82;;
45420;SDS011;55462;47.042;8.292;2023-06-26T12:58:32;9.43;;;8.52;;
45420;SDS011;55462;47.042;8.292;2023-06-26T13:00:58;8.27;;;7.57;;
45420;SDS011;55462;47.042;8.292;2023-06-26T13:03:23;8.57;;;7.78;;
45420;SDS011;55462;47.042;8.292;2023-06-26T13:05:48;10.05;;;7.93;;
45420;SDS011;55462;47.042;8.292;2023-06-26T13:08:14;8.30;;;7.35;;
45420;SDS011;55462;47.042;8.292;2023-06-26T13:10:42;8.48;;;7.55;;
45420;SDS011;55462;47.042;8.292;2023-06-26T13:13:07;8.13;;;7.53;;
45420;SDS011;55462;47.042;8.292;2023-06-26T13:15:33;8.95;;;8.15;;
45420;SDS011;55462;47.042;8.292;2023-06-26T13:17:59;8.07;;;7.38;;
45420;SDS011;55462;47.042;8.292;2023-06-26T13:20:30;8.82;;;8.02;;
45420;SDS011;55462;47.042;8.292;2023-06-26T13:22:59;8.32;;;7.75;;
45420;SDS011;55462;47.042;8.292;2023-06-26T13:25:31;8.63;;;7.82;;
45420;SDS011;55462;47.042;8.292;2023-06-26T13:27:56;8.95;;;8.15;;
45420;SDS011;55462;47.042;8.292;2023-06-26T13:30:22;9.63;;;8.32;;
45420;SDS011;55462;47.042;8.292;2023-06-26T13:32:47;8.32;;;7.63;;
45420;SDS011;55462;47.042;8.292;2023-06-26T13:35:12;8.57;;;7.78;;
45420;SDS011;55462;47.042;8.292;2023-06-26T13:37:40;10.88;;;7.35;;
45420;SDS011;55462;47.042;8.292;2023-06-26T13:40:06;8.77;;;7.80;;
45420;SDS011;55462;47.042;8.292;2023-06-26T13:42:32;8.30;;;7.63;;
45420;SDS011;55462;47.042;8.292;2023-06-26T13:44:57;9.43;;;8.43;;
45420;SDS011;55462;47.042;8.292;2023-06-26T13:47:23;8.50;;;7.80;;
45420;SDS011;55462;47.042;8.292;2023-06-26T13:49:48;9.00;;;8.07;;
45420;SDS011;55462;47.042;8.292;2023-06-26T13:52:13;8.07;;;7.45;;
45420;SDS011;55462;47.042;8.292;2023-06-26T13:54:39;8.35;;;7.70;;
45420;SDS011;55462;47.042;8.292;2023-06-26T13:57:08;8.55;;;7.70;;
45420;SDS011;55462;47.042;8.292;2023-06-26T13:59:33;8.80;;;8.05;;
45420;SDS011;55462;47.042;8.292;2023-06-26T14:01:59;8.57;;;7.85;;
45420;SDS011;55462;47.042;8.292;2023-06-26T14:04:24;10.38;;;8.00;;
45420;SDS011;55462;47.042;8.292;2023-06-26T14:06:50;9.05;;;8.25;;
45420;SDS011;55462;47.042;8.292;2023-06-26T14:09:16;8.65;;;7.90;;
45420;SDS011;55462;47.042;8.292;2023-06-26T14:11:41;10.32;;;7.80;;
45420;SDS011;55462;47.042;8.292;2023-06-26T14:14:06;8.23;;;7.40;;
45420;SDS011;55462;47.042;8.292;2023-06-26T14:16:32;9.27;;;8.05;;
45420;SDS011;55462;47.042;8.292;2023-06-26T14:18:57;10.18;;;7.85;;
45420;SDS011;55462;47.042;8.292;2023-06-26T14:21:23;8.07;;;7.50;;
45420;SDS011;55462;47.042;8.292;2023-06-26T14:23:48;8.73;;;7.82;;
45420;SDS011;55462;47.042;8.292;2023-06-26T14:26:14;8.88;;;8.18;;
45420;SDS011;55462;47.042;8.292;2023-06-26T14:28:39;8.38;;;7.63;;
45420;SDS011;55462;47.042;8.292;2023-06-26T14:31:05;8.85;;;8.15;;
45420;SDS011;55462;47.042;8.292;2023-06-26T14:33:30;8.93;;;8.05;;
45420;SDS011;55462;47.042;8.292;2023-06-26T14:35:55;9.05;;;8.15;;
45420;SDS011;55462;47.042;8.292;2023-06-26T14:38:21;8.18;;;7.38;;
45420;SDS011;55462;47.042;8.292;2023-06-26T14:40:46;8.68;;;8.02;;
45420;SDS011;55462;47.042;8.292;2023-06-26T14:43:11;8.65;;;8.05;;
45420;SDS011;55462;47.042;8.292;2023-06-26T14:45:37;8.30;;;7.70;;
45420;SDS011;55462;47.042;8.292;2023-06-26T14:48:02;10.38;;;8.10;;
45420;SDS011;55462;47.042;8.292;2023-06-26T14:50:27;9.75;;;8.75;;
45420;SDS011;55462;47.042;8.292;2023-06-26T14:52:53;8.98;;;8.27;;
45420;SDS011;55462;47.042;8.292;2023-06-26T14:55:18;9.32;;;8.48;;
45420;SDS011;55462;47.042;8.292;2023-06-26T14:57:43;9.20;;;8.40;;
45420;SDS011;55462;47.042;8.292;2023-06-26T15:00:09;8.40;;;7.60;;